sensor_id;sensor_type;location;lat;lon;timestamp;P1;durP1;ratioP1;P2;durP2;ratioP2
9106;SDS011;4589;48.690;8.952;2024-01-16T00:01:44;12.77;;;6.67;;
9106;SDS011;4589;48.690;8.952;2024-01-16T00:04:10;9.97;;;6.60;;
9106;SDS011;4589;48.690;8.952;2024-01-16T00:06:39;9.13;;;6.53;;
9106;SDS011;4589;48.690;8.952;2024-01-16T00:09:05;9.80;;;6.50;;
9106;SDS011;4589;48.690;8.952;2024-01-16T00:11:31;9.63;;;7.30;;
9106;SDS011;4589;48.690;8.952;2024-01-16T00:13:57;11.20;;;6.87;;
9106;SDS011;4589;48.690;8.952;2024-01-16T00:16:22;10.17;;;6.23;;
9106;SDS011;4589;48.690;8.952;2024-01-16T00:18:48;10.87;;;7.23;;
9106;SDS011;4589;48.690;8.952;2024-01-16T00:21:14;11.20;;;6.83;;
9106;SDS011;4589;48.690;8.952;2024-01-16T00:23:39;9.37;;;6.70;;
9106;SDS011;4589;48.690;8.952;2024-01-16T00:26:05;10.20;;;6.80;;
9106;SDS011;4589;48.690;8.952;2024-01-16T00:28:31;12.73;;;7.30;;
9106;SDS011;4589;48.690;8.952;2024-01-16T00:30:57;11.65;;;6.30;;
9106;SDS011;4589;48.690;8.952;2024-01-16T00:33:23;11.23;;;6.77;;
9106;SDS011;4589;48.690;8.952;2024-01-16T00:35:49;8.47;;;6.27;;
9106;SDS011;4589;48.690;8.952;2024-01-16T00:38:15;9.70;;;6.37;;
9106;SDS011;4589;48.690;8.952;2024-01-16T00:40:41;8.67;;;6.20;;
9106;SDS011;4589;48.690;8.952;2024-01-16T00:43:06;11.13;;;7.17;;
9106;SDS011;4589;48.690;8.952;2024-01-16T00:45:32;11.17;;;6.57;;
9106;SDS011;4589;48.690;8.952;2024-01-16T00:47:57;17.67;;;8.10;;
9106;SDS011;4589;48.690;8.952;2024-01-16T00:50:23;12.13;;;7.03;;
9106;SDS011;4589;48.690;8.952;2024-01-16T00:52:49;16.23;;;6.88;;
9106;SDS011;4589;48.690;8.952;2024-01-16T00:55:15;12.03;;;7.77;;
9106;SDS011;4589;48.690;8.952;2024-01-16T00:57:40;10.13;;;6.40;;
9106;SDS011;4589;48.690;8.952;2024-01-16T01:00:06;14.13;;;7.10;;
9106;SDS011;4589;48.690;8.952;2024-01-16T01:02:32;10.77;;;6.00;;
9106;SDS011;4589;48.690;8.952;2024-01-16T01:04:58;10.25;;;6.78;;
9106;SDS011;4589;48.690;8.952;2024-01-16T01:07:24;13.53;;;5.97;;
9106;SDS011;4589;48.690;8.952;2024-01-16T01:09:50;10.85;;;7.50;;
9106;SDS011;4589;48.690;8.952;2024-01-16T01:12:16;11.40;;;6.93;;
9106;SDS011;4589;48.690;8.952;2024-01-16T01:14:42;11.97;;;7.67;;
9106;SDS011;4589;48.690;8.952;2024-01-16T01:17:07;18.40;;;6.93;;
9106;SDS011;4589;48.690;8.952;2024-01-16T01:19:33;13.53;;;7.10;;
9106;SDS011;4589;48.690;8.952;2024-01-16T01:21:58;11.40;;;6.87;;
9106;SDS011;4589;48.690;8.952;2024-01-16T01:24:24;9.20;;;6.80;;
9106;SDS011;4589;48.690;8.952;2024-01-16T01:26:49;11.93;;;6.50;;
9106;SDS011;4589;48.690;8.952;2024-01-16T01:29:15;11.57;;;6.40;;
9106;SDS011;4589;48.690;8.952;2024-01-16T01:31:44;17.58;;;7.10;;
9106;SDS011;4589;48.690;8.952;2024-01-16T01:34:12;14.57;;;7.40;;
9106;SDS011;4589;48.690;8.952;2024-01-16T01:36:37;11.00;;;6.30;;
9106;SDS011;4589;48.690;8.952;2024-01-16T01:39:03;9.80;;;6.10;;
9106;SDS011;4589;48.690;8.952;2024-01-16T01:41:28;11.60;;;6.30;;
9106;SDS011;4589;48.690;8.952;2024-01-16T01:43:54;13.30;;;6.83;;
9106;SDS011;4589;48.690;8.952;2024-01-16T01:46:20;12.07;;;7.57;;
9106;SDS011;4589;48.690;8.952;2024-01-16T01:48:47;9.13;;;6.32;;
9106;SDS011;4589;48.690;8.952;2024-01-16T01:51:13;12.25;;;6.60;;
9106;SDS011;4589;48.690;8.952;2024-01-16T01:53:44;13.20;;;7.10;;
9106;SDS011;4589;48.690;8.952;2024-01-16T01:56:11;11.25;;;6.28;;
9106;SDS011;4589;48.690;8.952;2024-01-16T01:58:43;10.85;;;6.88;;
9106;SDS011;4589;48.690;8.952;2024-01-16T02:01:10;10.57;;;6.75;;
9106;SDS011;4589;48.690;8.952;2024-01-16T02:03:41;14.27;;;7.35;;
9106;SDS011;4589;48.690;8.952;2024-01-16T02:06:09;13.07;;;8.02;;
9106;SDS011;4589;48.690;8.952;2024-01-16T02:08:36;8.90;;;6.30;;
9106;SDS011;4589;48.690;8.952;2024-01-16T02:11:01;14.07;;;7.03;;
9106;SDS011;4589;48.690;8.952;2024-01-16T02:13:27;14.20;;;7.27;;
9106;SDS011;4589;48.690;8.952;2024-01-16T02:15:53;11.35;;;7.25;;
9106;SDS011;4589;48.690;8.952;2024-01-16T02:18:19;13.20;;;7.57;;
9106;SDS011;4589;48.690;8.952;2024-01-16T02:20:45;13.03;;;6.00;;
9106;SDS011;4589;48.690;8.952;2024-01-16T02:23:12;11.48;;;7.32;;
9106;SDS011;4589;48.690;8.952;2024-01-16T02:25:42;10.00;;;6.25;;
9106;SDS011;4589;48.690;8.952;2024-01-16T02:28:08;10.82;;;6.70;;
9106;SDS011;4589;48.690;8.952;2024-01-16T02:30:34;10.50;;;7.00;;
9106;SDS011;4589;48.690;8.952;2024-01-16T02:33:00;9.50;;;6.15;;
9106;SDS011;4589;48.690;8.952;2024-01-16T02:35:26;13.80;;;6.93;;
9106;SDS011;4589;48.690;8.952;2024-01-16T02:37:51;10.30;;;6.43;;
9106;SDS011;4589;48.690;8.952;2024-01-16T02:40:17;11.00;;;6.40;;
9106;SDS011;4589;48.690;8.952;2024-01-16T02:42:42;13.73;;;6.43;;
9106;SDS011;4589;48.690;8.952;2024-01-16T02:45:08;9.63;;;6.30;;
9106;SDS011;4589;48.690;8.952;2024-01-16T02:47:34;10.17;;;6.43;;
9106;SDS011;4589;48.690;8.952;2024-01-16T02:49:59;11.87;;;6.00;;
9106;SDS011;4589;48.690;8.952;2024-01-16T02:52:26;14.68;;;6.72;;
9106;SDS011;4589;48.690;8.952;2024-01-16T02:54:51;11.90;;;6.97;;
9106;SDS011;4589;48.690;8.952;2024-01-16T02:57:17;11.60;;;6.40;;
9106;SDS011;4589;48.690;8.952;2024-01-16T02:59:43;10.30;;;6.80;;
9106;SDS011;4589;48.690;8.952;2024-01-16T03:02:09;16.05;;;6.45;;
9106;SDS011;4589;48.690;8.952;2024-01-16T03:04:35;10.10;;;6.40;;
9106;SDS011;4589;48.690;8.952;2024-01-16T03:07:00;10.57;;;7.27;;
9106;SDS011;4589;48.690;8.952;2024-01-16T03:09:26;11.33;;;6.33;;
9106;SDS011;4589;48.690;8.952;2024-01-16T03:11:52;12.50;;;6.40;;
9106;SDS011;4589;48.690;8.952;2024-01-16T03:14:17;10.07;;;6.33;;
9106;SDS011;4589;48.690;8.952;2024-01-16T03:16:43;8.85;;;6.00;;
9106;SDS011;4589;48.690;8.952;2024-01-16T03:19:09;13.50;;;5.83;;
9106;SDS011;4589;48.690;8.952;2024-01-16T03:21:36;9.30;;;6.13;;
9106;SDS011;4589;48.690;8.952;2024-01-16T03:24:02;7.87;;;5.40;;
9106;SDS011;4589;48.690;8.952;2024-01-16T03:26:29;9.90;;;5.38;;
9106;SDS011;4589;48.690;8.952;2024-01-16T03:28:54;16.20;;;5.80;;
9106;SDS011;4589;48.690;8.952;2024-01-16T03:31:20;12.17;;;6.37;;
9106;SDS011;4589;48.690;8.952;2024-01-16T03:33:47;11.20;;;5.90;;
9106;SDS011;4589;48.690;8.952;2024-01-16T03:36:12;12.10;;;6.40;;
9106;SDS011;4589;48.690;8.952;2024-01-16T03:38:38;9.93;;;6.13;;
9106;SDS011;4589;48.690;8.952;2024-01-16T03:41:04;8.35;;;5.20;;
9106;SDS011;4589;48.690;8.952;2024-01-16T03:43:32;7.90;;;5.45;;
9106;SDS011;4589;48.690;8.952;2024-01-16T03:45:59;11.45;;;5.82;;
9106;SDS011;4589;48.690;8.952;2024-01-16T03:48:24;10.00;;;5.70;;
9106;SDS011;4589;48.690;8.952;2024-01-16T03:50:50;13.37;;;6.50;;
9106;SDS011;4589;48.690;8.952;2024-01-16T03:53:16;10.20;;;5.50;;
9106;SDS011;4589;48.690;8.952;2024-01-16T03:55:42;12.13;;;6.40;;
9106;SDS011;4589;48.690;8.952;2024-01-16T03:58:08;11.68;;;6.35;;
9106;SDS011;4589;48.690;8.952;2024-01-16T04:00:34;11.33;;;5.00;;
9106;SDS011;4589;48.690;8.952;2024-01-16T04:03:00;7.93;;;6.23;;
9106;SDS011;4589;48.690;8.952;2024-01-16T04:05:26;11.20;;;6.20;;
9106;SDS011;4589;48.690;8.952;2024-01-16T04:07:52;12.43;;;6.13;;
9106;SDS011;4589;48.690;8.952;2024-01-16T04:10:17;14.30;;;5.90;;
9106;SDS011;4589;48.690;8.952;2024-01-16T04:12:43;11.90;;;5.80;;
9106;SDS011;4589;48.690;8.952;2024-01-16T04:15:09;9.90;;;5.90;;
9106;SDS011;4589;48.690;8.952;2024-01-16T04:17:35;19.13;;;6.38;;
9106;SDS011;4589;48.690;8.952;2024-01-16T04:20:00;16.77;;;6.87;;
9106;SDS011;4589;48.690;8.952;2024-01-16T04:22:26;13.73;;;4.83;;
9106;SDS011;4589;48.690;8.952;2024-01-16T04:24:51;12.00;;;5.90;;
9106;SDS011;4589;48.690;8.952;2024-01-16T04:27:17;7.95;;;5.32;;
9106;SDS011;4589;48.690;8.952;2024-01-16T04:29:43;7.70;;;5.10;;
9106;SDS011;4589;48.690;8.952;2024-01-16T04:32:10;8.88;;;5.70;;
9106;SDS011;4589;48.690;8.952;2024-01-16T04:34:35;6.97;;;4.57;;
9106;SDS011;4589;48.690;8.952;2024-01-16T04:37:01;13.70;;;6.30;;
9106;SDS011;4589;48.690;8.952;2024-01-16T04:39:26;7.93;;;4.70;;
9106;SDS011;4589;48.690;8.952;2024-01-16T04:41:52;13.43;;;6.43;;
9106;SDS011;4589;48.690;8.952;2024-01-16T04:44:18;8.68;;;5.75;;
9106;SDS011;4589;48.690;8.952;2024-01-16T04:46:44;11.27;;;5.90;;
9106;SDS011;4589;48.690;8.952;2024-01-16T04:49:10;8.20;;;5.33;;
9106;SDS011;4589;48.690;8.952;2024-01-16T04:51:36;6.25;;;4.70;;
9106;SDS011;4589;48.690;8.952;2024-01-16T04:54:01;9.80;;;5.90;;
9106;SDS011;4589;48.690;8.952;2024-01-16T04:56:27;6.90;;;4.90;;
9106;SDS011;4589;48.690;8.952;2024-01-16T04:58:53;10.77;;;5.10;;
9106;SDS011;4589;48.690;8.952;2024-01-16T05:01:19;9.13;;;5.87;;
9106;SDS011;4589;48.690;8.952;2024-01-16T05:03:44;8.43;;;5.00;;
9106;SDS011;4589;48.690;8.952;2024-01-16T05:06:13;11.73;;;6.60;;
9106;SDS011;4589;48.690;8.952;2024-01-16T05:08:42;9.73;;;5.38;;
9106;SDS011;4589;48.690;8.952;2024-01-16T05:11:08;12.27;;;5.25;;
9106;SDS011;4589;48.690;8.952;2024-01-16T05:13:34;10.82;;;6.72;;
9106;SDS011;4589;48.690;8.952;2024-01-16T05:16:00;8.50;;;4.70;;
9106;SDS011;4589;48.690;8.952;2024-01-16T05:18:25;6.43;;;4.60;;
9106;SDS011;4589;48.690;8.952;2024-01-16T05:20:51;9.23;;;5.00;;
9106;SDS011;4589;48.690;8.952;2024-01-16T05:23:16;12.27;;;4.67;;
9106;SDS011;4589;48.690;8.952;2024-01-16T05:25:43;7.30;;;5.22;;
9106;SDS011;4589;48.690;8.952;2024-01-16T05:28:08;11.73;;;5.30;;
9106;SDS011;4589;48.690;8.952;2024-01-16T05:30:35;7.50;;;5.45;;
9106;SDS011;4589;48.690;8.952;2024-01-16T05:33:00;8.57;;;5.30;;
9106;SDS011;4589;48.690;8.952;2024-01-16T05:35:27;8.95;;;5.60;;
9106;SDS011;4589;48.690;8.952;2024-01-16T05:37:56;8.93;;;5.70;;
9106;SDS011;4589;48.690;8.952;2024-01-16T05:40:21;11.23;;;5.60;;
9106;SDS011;4589;48.690;8.952;2024-01-16T05:42:50;10.50;;;5.53;;
9106;SDS011;4589;48.690;8.952;2024-01-16T05:45:16;11.27;;;5.97;;
9106;SDS011;4589;48.690;8.952;2024-01-16T05:47:42;9.50;;;5.90;;
9106;SDS011;4589;48.690;8.952;2024-01-16T05:50:07;10.40;;;5.60;;
9106;SDS011;4589;48.690;8.952;2024-01-16T05:52:33;6.00;;;5.18;;
9106;SDS011;4589;48.690;8.952;2024-01-16T05:54:59;9.70;;;5.80;;
9106;SDS011;4589;48.690;8.952;2024-01-16T05:57:25;8.75;;;5.32;;
9106;SDS011;4589;48.690;8.952;2024-01-16T05:59:51;8.95;;;4.43;;
9106;SDS011;4589;48.690;8.952;2024-01-16T06:02:17;18.70;;;16.80;;
9106;SDS011;4589;48.690;8.952;2024-01-16T06:04:43;15.40;;;10.10;;
9106;SDS011;4589;48.690;8.952;2024-01-16T06:07:09;11.43;;;6.40;;
9106;SDS011;4589;48.690;8.952;2024-01-16T06:09:38;10.40;;;5.77;;
9106;SDS011;4589;48.690;8.952;2024-01-16T06:12:05;11.63;;;6.30;;
9106;SDS011;4589;48.690;8.952;2024-01-16T06:14:32;25.80;;;13.27;;
9106;SDS011;4589;48.690;8.952;2024-01-16T06:16:58;7.77;;;5.53;;
9106;SDS011;4589;48.690;8.952;2024-01-16T06:19:23;10.00;;;6.17;;
9106;SDS011;4589;48.690;8.952;2024-01-16T06:21:49;5.57;;;4.70;;
9106;SDS011;4589;48.690;8.952;2024-01-16T06:24:14;9.50;;;5.80;;
9106;SDS011;4589;48.690;8.952;2024-01-16T06:26:40;9.67;;;5.43;;
9106;SDS011;4589;48.690;8.952;2024-01-16T06:29:07;8.77;;;4.60;;
9106;SDS011;4589;48.690;8.952;2024-01-16T06:31:32;9.00;;;5.40;;
9106;SDS011;4589;48.690;8.952;2024-01-16T06:33:58;10.23;;;5.60;;
9106;SDS011;4589;48.690;8.952;2024-01-16T06:36:24;8.40;;;5.07;;
9106;SDS011;4589;48.690;8.952;2024-01-16T06:38:49;15.27;;;6.00;;
9106;SDS011;4589;48.690;8.952;2024-01-16T06:41:15;10.30;;;6.03;;
9106;SDS011;4589;48.690;8.952;2024-01-16T06:43:41;10.57;;;5.50;;
9106;SDS011;4589;48.690;8.952;2024-01-16T06:46:07;7.73;;;5.70;;
9106;SDS011;4589;48.690;8.952;2024-01-16T06:48:36;8.00;;;5.20;;
9106;SDS011;4589;48.690;8.952;2024-01-16T06:51:03;7.28;;;5.00;;
9106;SDS011;4589;48.690;8.952;2024-01-16T06:53:29;9.68;;;5.35;;
9106;SDS011;4589;48.690;8.952;2024-01-16T06:55:55;11.20;;;5.73;;
9106;SDS011;4589;48.690;8.952;2024-01-16T06:58:20;11.40;;;5.80;;
9106;SDS011;4589;48.690;8.952;2024-01-16T07:00:46;13.90;;;6.30;;
9106;SDS011;4589;48.690;8.952;2024-01-16T07:03:13;8.63;;;5.70;;
9106;SDS011;4589;48.690;8.952;2024-01-16T07:05:38;12.83;;;5.60;;
9106;SDS011;4589;48.690;8.952;2024-01-16T07:08:08;8.73;;;5.32;;
9106;SDS011;4589;48.690;8.952;2024-01-16T07:10:34;11.30;;;5.50;;
9106;SDS011;4589;48.690;8.952;2024-01-16T07:13:00;9.35;;;5.90;;
9106;SDS011;4589;48.690;8.952;2024-01-16T07:15:26;9.73;;;5.00;;
9106;SDS011;4589;48.690;8.952;2024-01-16T07:17:52;7.60;;;5.47;;
9106;SDS011;4589;48.690;8.952;2024-01-16T07:20:17;11.53;;;5.60;;
9106;SDS011;4589;48.690;8.952;2024-01-16T07:22:43;12.53;;;5.47;;
9106;SDS011;4589;48.690;8.952;2024-01-16T07:25:10;9.75;;;5.20;;
9106;SDS011;4589;48.690;8.952;2024-01-16T07:27:35;11.90;;;5.70;;
9106;SDS011;4589;48.690;8.952;2024-01-16T07:30:04;5.97;;;4.80;;
9106;SDS011;4589;48.690;8.952;2024-01-16T07:32:30;7.93;;;5.35;;
9106;SDS011;4589;48.690;8.952;2024-01-16T07:34:56;9.32;;;5.72;;
9106;SDS011;4589;48.690;8.952;2024-01-16T07:37:22;9.23;;;4.83;;
9106;SDS011;4589;48.690;8.952;2024-01-16T07:39:47;8.80;;;5.23;;
9106;SDS011;4589;48.690;8.952;2024-01-16T07:42:13;10.57;;;6.27;;
9106;SDS011;4589;48.690;8.952;2024-01-16T07:44:39;8.45;;;5.63;;
9106;SDS011;4589;48.690;8.952;2024-01-16T07:47:04;11.03;;;5.37;;
9106;SDS011;4589;48.690;8.952;2024-01-16T07:49:30;11.43;;;6.15;;
9106;SDS011;4589;48.690;8.952;2024-01-16T07:51:56;7.70;;;5.33;;
9106;SDS011;4589;48.690;8.952;2024-01-16T07:54:22;11.37;;;6.10;;
9106;SDS011;4589;48.690;8.952;2024-01-16T07:56:49;9.13;;;5.97;;
9106;SDS011;4589;48.690;8.952;2024-01-16T07:59:14;16.77;;;6.30;;
9106;SDS011;4589;48.690;8.952;2024-01-16T08:01:40;8.03;;;5.60;;
9106;SDS011;4589;48.690;8.952;2024-01-16T08:04:05;12.70;;;6.00;;
9106;SDS011;4589;48.690;8.952;2024-01-16T08:06:31;11.70;;;5.73;;
9106;SDS011;4589;48.690;8.952;2024-01-16T08:08:57;10.15;;;5.68;;
9106;SDS011;4589;48.690;8.952;2024-01-16T08:11:23;9.80;;;5.97;;
9106;SDS011;4589;48.690;8.952;2024-01-16T08:13:49;10.20;;;6.40;;
9106;SDS011;4589;48.690;8.952;2024-01-16T08:16:14;9.70;;;6.07;;
9106;SDS011;4589;48.690;8.952;2024-01-16T08:18:40;14.00;;;5.50;;
9106;SDS011;4589;48.690;8.952;2024-01-16T08:21:06;10.70;;;6.67;;
9106;SDS011;4589;48.690;8.952;2024-01-16T08:23:32;11.48;;;6.07;;
9106;SDS011;4589;48.690;8.952;2024-01-16T08:25:59;7.50;;;4.82;;
9106;SDS011;4589;48.690;8.952;2024-01-16T08:28:24;13.73;;;6.73;;
9106;SDS011;4589;48.690;8.952;2024-01-16T08:30:51;9.07;;;5.93;;
9106;SDS011;4589;48.690;8.952;2024-01-16T08:33:16;11.33;;;6.23;;
9106;SDS011;4589;48.690;8.952;2024-01-16T08:35:42;9.60;;;6.03;;
9106;SDS011;4589;48.690;8.952;2024-01-16T08:38:07;9.97;;;7.07;;
9106;SDS011;4589;48.690;8.952;2024-01-16T08:40:33;15.53;;;6.77;;
9106;SDS011;4589;48.690;8.952;2024-01-16T08:42:59;11.33;;;6.37;;
9106;SDS011;4589;48.690;8.952;2024-01-16T08:45:24;8.10;;;5.30;;
9106;SDS011;4589;48.690;8.952;2024-01-16T08:47:51;10.75;;;6.45;;
9106;SDS011;4589;48.690;8.952;2024-01-16T08:50:17;8.43;;;5.75;;
9106;SDS011;4589;48.690;8.952;2024-01-16T08:52:43;9.77;;;6.23;;
9106;SDS011;4589;48.690;8.952;2024-01-16T08:55:09;8.47;;;5.73;;
9106;SDS011;4589;48.690;8.952;2024-01-16T08:57:36;11.83;;;7.83;;
9106;SDS011;4589;48.690;8.952;2024-01-16T09:00:03;11.77;;;6.75;;
9106;SDS011;4589;48.690;8.952;2024-01-16T09:02:29;13.40;;;6.65;;
9106;SDS011;4589;48.690;8.952;2024-01-16T09:04:56;9.15;;;5.28;;
9106;SDS011;4589;48.690;8.952;2024-01-16T09:07:21;12.90;;;6.17;;
9106;SDS011;4589;48.690;8.952;2024-01-16T09:09:47;10.67;;;6.90;;
9106;SDS011;4589;48.690;8.952;2024-01-16T09:12:13;8.57;;;5.47;;
9106;SDS011;4589;48.690;8.952;2024-01-16T09:14:38;8.70;;;6.10;;
9106;SDS011;4589;48.690;8.952;2024-01-16T09:17:06;8.45;;;6.13;;
9106;SDS011;4589;48.690;8.952;2024-01-16T09:19:31;11.50;;;6.10;;
9106;SDS011;4589;48.690;8.952;2024-01-16T09:21:57;7.07;;;6.30;;
9106;SDS011;4589;48.690;8.952;2024-01-16T09:24:23;8.23;;;5.37;;
9106;SDS011;4589;48.690;8.952;2024-01-16T09:26:49;7.63;;;6.10;;
9106;SDS011;4589;48.690;8.952;2024-01-16T09:29:14;9.17;;;6.70;;
9106;SDS011;4589;48.690;8.952;2024-01-16T09:31:41;8.55;;;6.22;;
9106;SDS011;4589;48.690;8.952;2024-01-16T09:34:07;8.60;;;5.87;;
9106;SDS011;4589;48.690;8.952;2024-01-16T09:36:32;10.47;;;6.37;;
9106;SDS011;4589;48.690;8.952;2024-01-16T09:39:00;9.93;;;6.38;;
9106;SDS011;4589;48.690;8.952;2024-01-16T09:41:27;12.40;;;6.00;;
9106;SDS011;4589;48.690;8.952;2024-01-16T09:43:52;14.20;;;6.80;;
9106;SDS011;4589;48.690;8.952;2024-01-16T09:46:18;8.80;;;6.63;;
9106;SDS011;4589;48.690;8.952;2024-01-16T09:48:47;10.18;;;7.30;;
9106;SDS011;4589;48.690;8.952;2024-01-16T09:51:13;9.32;;;6.32;;
9106;SDS011;4589;48.690;8.952;2024-01-16T09:53:42;9.88;;;7.30;;
9106;SDS011;4589;48.690;8.952;2024-01-16T09:56:10;8.97;;;6.03;;
9106;SDS011;4589;48.690;8.952;2024-01-16T09:58:40;12.75;;;6.45;;
9106;SDS011;4589;48.690;8.952;2024-01-16T10:01:06;13.60;;;6.50;;
9106;SDS011;4589;48.690;8.952;2024-01-16T10:03:31;9.33;;;5.83;;
9106;SDS011;4589;48.690;8.952;2024-01-16T10:06:00;8.80;;;6.23;;
9106;SDS011;4589;48.690;8.952;2024-01-16T10:08:29;11.00;;;6.37;;
9106;SDS011;4589;48.690;8.952;2024-01-16T10:10:56;11.33;;;6.50;;
9106;SDS011;4589;48.690;8.952;2024-01-16T10:13:22;9.03;;;6.10;;
9106;SDS011;4589;48.690;8.952;2024-01-16T10:15:51;7.83;;;5.60;;
9106;SDS011;4589;48.690;8.952;2024-01-16T10:18:28;7.67;;;4.93;;
9106;SDS011;4589;48.690;8.952;2024-01-16T10:20:59;10.43;;;5.70;;
9106;SDS011;4589;48.690;8.952;2024-01-16T10:23:25;6.50;;;5.23;;
9106;SDS011;4589;48.690;8.952;2024-01-16T10:26:04;13.53;;;5.97;;
9106;SDS011;4589;48.690;8.952;2024-01-16T10:28:30;8.00;;;5.13;;
9106;SDS011;4589;48.690;8.952;2024-01-16T10:31:06;9.83;;;5.63;;
9106;SDS011;4589;48.690;8.952;2024-01-16T10:33:33;6.97;;;4.90;;
9106;SDS011;4589;48.690;8.952;2024-01-16T10:36:11;9.50;;;5.40;;
9106;SDS011;4589;48.690;8.952;2024-01-16T10:38:39;6.97;;;5.13;;
9106;SDS011;4589;48.690;8.952;2024-01-16T10:41:18;6.37;;;5.47;;
9106;SDS011;4589;48.690;8.952;2024-01-16T10:43:44;10.33;;;6.50;;
9106;SDS011;4589;48.690;8.952;2024-01-16T10:46:11;7.80;;;5.50;;
9106;SDS011;4589;48.690;8.952;2024-01-16T10:48:44;10.83;;;6.00;;
9106;SDS011;4589;48.690;8.952;2024-01-16T10:51:24;8.70;;;6.13;;
9106;SDS011;4589;48.690;8.952;2024-01-16T10:53:52;6.40;;;5.50;;
9106;SDS011;4589;48.690;8.952;2024-01-16T10:56:24;6.70;;;4.57;;
9106;SDS011;4589;48.690;8.952;2024-01-16T11:01:36;6.60;;;4.57;;
9106;SDS011;4589;48.690;8.952;2024-01-16T11:04:03;6.67;;;4.70;;
9106;SDS011;4589;48.690;8.952;2024-01-16T11:06:30;7.00;;;4.43;;
9106;SDS011;4589;48.690;8.952;2024-01-16T11:08:56;8.13;;;4.90;;
9106;SDS011;4589;48.690;8.952;2024-01-16T11:11:23;8.23;;;5.53;;
9106;SDS011;4589;48.690;8.952;2024-01-16T11:13:51;12.53;;;4.97;;
9106;SDS011;4589;48.690;8.952;2024-01-16T11:16:17;6.77;;;5.03;;
9106;SDS011;4589;48.690;8.952;2024-01-16T11:18:44;8.03;;;5.40;;
9106;SDS011;4589;48.690;8.952;2024-01-16T11:21:13;5.03;;;3.80;;
9106;SDS011;4589;48.690;8.952;2024-01-16T11:23:40;5.70;;;4.70;;
9106;SDS011;4589;48.690;8.952;2024-01-16T11:26:24;7.20;;;4.47;;
9106;SDS011;4589;48.690;8.952;2024-01-16T11:28:52;8.50;;;3.97;;
9106;SDS011;4589;48.690;8.952;2024-01-16T11:31:27;11.83;;;5.97;;
9106;SDS011;4589;48.690;8.952;2024-01-16T11:33:59;6.63;;;5.00;;
9106;SDS011;4589;48.690;8.952;2024-01-16T11:39:30;6.23;;;4.40;;
9106;SDS011;4589;48.690;8.952;2024-01-16T11:41:58;8.00;;;5.10;;
9106;SDS011;4589;48.690;8.952;2024-01-16T11:44:46;7.37;;;4.57;;
9106;SDS011;4589;48.690;8.952;2024-01-16T11:47:18;5.90;;;4.53;;
9106;SDS011;4589;48.690;8.952;2024-01-16T11:49:46;5.23;;;4.10;;
9106;SDS011;4589;48.690;8.952;2024-01-16T11:52:40;5.80;;;4.53;;
9106;SDS011;4589;48.690;8.952;2024-01-16T12:00:39;11.13;;;3.97;;
9106;SDS011;4589;48.690;8.952;2024-01-16T12:03:06;10.53;;;4.10;;
9106;SDS011;4589;48.690;8.952;2024-01-16T12:05:33;7.10;;;4.00;;
9106;SDS011;4589;48.690;8.952;2024-01-16T12:07:58;8.93;;;4.93;;
9106;SDS011;4589;48.690;8.952;2024-01-16T12:10:24;5.87;;;4.70;;
9106;SDS011;4589;48.690;8.952;2024-01-16T12:12:51;6.20;;;4.70;;
9106;SDS011;4589;48.690;8.952;2024-01-16T12:15:22;10.20;;;5.03;;
9106;SDS011;4589;48.690;8.952;2024-01-16T12:17:55;4.53;;;3.97;;
9106;SDS011;4589;48.690;8.952;2024-01-16T12:20:26;11.10;;;4.57;;
9106;SDS011;4589;48.690;8.952;2024-01-16T12:22:58;7.70;;;4.60;;
9106;SDS011;4589;48.690;8.952;2024-01-16T12:25:28;8.27;;;4.17;;
9106;SDS011;4589;48.690;8.952;2024-01-16T12:27:59;6.47;;;3.90;;
9106;SDS011;4589;48.690;8.952;2024-01-16T12:30:32;6.13;;;4.23;;
9106;SDS011;4589;48.690;8.952;2024-01-16T12:33:06;4.73;;;3.80;;
9106;SDS011;4589;48.690;8.952;2024-01-16T12:35:36;7.80;;;4.03;;
9106;SDS011;4589;48.690;8.952;2024-01-16T12:38:03;4.00;;;3.60;;
9106;SDS011;4589;48.690;8.952;2024-01-16T12:40:30;7.87;;;5.47;;
9106;SDS011;4589;48.690;8.952;2024-01-16T12:42:57;5.90;;;3.97;;
9106;SDS011;4589;48.690;8.952;2024-01-16T12:45:23;5.10;;;3.80;;
9106;SDS011;4589;48.690;8.952;2024-01-16T12:47:50;10.03;;;4.30;;
9106;SDS011;4589;48.690;8.952;2024-01-16T12:50:19;6.10;;;4.47;;
9106;SDS011;4589;48.690;8.952;2024-01-16T12:52:46;6.67;;;3.80;;
9106;SDS011;4589;48.690;8.952;2024-01-16T12:55:13;7.30;;;3.97;;
9106;SDS011;4589;48.690;8.952;2024-01-16T12:57:39;3.60;;;3.30;;
9106;SDS011;4589;48.690;8.952;2024-01-16T13:02:50;8.70;;;3.97;;
9106;SDS011;4589;48.690;8.952;2024-01-16T13:05:22;3.80;;;3.37;;
9106;SDS011;4589;48.690;8.952;2024-01-16T13:08:04;6.33;;;3.60;;
9106;SDS011;4589;48.690;8.952;2024-01-16T13:10:29;6.57;;;4.23;;
9106;SDS011;4589;48.690;8.952;2024-01-16T13:13:15;8.93;;;4.47;;
9106;SDS011;4589;48.690;8.952;2024-01-16T13:15:42;8.20;;;3.70;;
9106;SDS011;4589;48.690;8.952;2024-01-16T13:18:18;4.07;;;2.93;;
9106;SDS011;4589;48.690;8.952;2024-01-16T13:20:49;6.63;;;3.60;;
9106;SDS011;4589;48.690;8.952;2024-01-16T13:23:15;5.27;;;3.13;;
9106;SDS011;4589;48.690;8.952;2024-01-16T13:25:45;4.03;;;2.37;;
9106;SDS011;4589;48.690;8.952;2024-01-16T13:28:15;3.50;;;2.80;;
9106;SDS011;4589;48.690;8.952;2024-01-16T13:30:41;4.50;;;3.13;;
9106;SDS011;4589;48.690;8.952;2024-01-16T13:33:07;3.83;;;2.47;;
9106;SDS011;4589;48.690;8.952;2024-01-16T13:35:40;5.83;;;3.53;;
9106;SDS011;4589;48.690;8.952;2024-01-16T13:38:06;7.00;;;3.50;;
9106;SDS011;4589;48.690;8.952;2024-01-16T13:40:33;3.70;;;3.40;;
9106;SDS011;4589;48.690;8.952;2024-01-16T13:42:59;3.50;;;2.57;;
9106;SDS011;4589;48.690;8.952;2024-01-16T13:45:25;4.97;;;3.17;;
9106;SDS011;4589;48.690;8.952;2024-01-16T13:47:51;7.00;;;3.40;;
9106;SDS011;4589;48.690;8.952;2024-01-16T13:50:16;3.50;;;3.03;;
9106;SDS011;4589;48.690;8.952;2024-01-16T13:52:42;4.50;;;2.70;;
9106;SDS011;4589;48.690;8.952;2024-01-16T13:55:09;6.20;;;3.40;;
9106;SDS011;4589;48.690;8.952;2024-01-16T13:57:36;4.37;;;3.00;;
9106;SDS011;4589;48.690;8.952;2024-01-16T14:00:02;6.57;;;3.57;;
9106;SDS011;4589;48.690;8.952;2024-01-16T14:02:29;9.60;;;3.40;;
9106;SDS011;4589;48.690;8.952;2024-01-16T14:04:55;4.60;;;3.73;;
9106;SDS011;4589;48.690;8.952;2024-01-16T14:07:21;5.97;;;4.00;;
9106;SDS011;4589;48.690;8.952;2024-01-16T14:09:47;6.73;;;3.50;;
9106;SDS011;4589;48.690;8.952;2024-01-16T14:12:13;4.43;;;3.50;;
9106;SDS011;4589;48.690;8.952;2024-01-16T14:14:40;12.23;;;3.97;;
9106;SDS011;4589;48.690;8.952;2024-01-16T14:17:06;6.93;;;3.40;;
9106;SDS011;4589;48.690;8.952;2024-01-16T14:19:35;4.50;;;3.53;;
9106;SDS011;4589;48.690;8.952;2024-01-16T14:22:02;6.33;;;4.23;;
9106;SDS011;4589;48.690;8.952;2024-01-16T14:24:28;6.10;;;4.20;;
9106;SDS011;4589;48.690;8.952;2024-01-16T14:26:53;9.53;;;5.10;;
9106;SDS011;4589;48.690;8.952;2024-01-16T14:29:21;10.20;;;4.72;;
9106;SDS011;4589;48.690;8.952;2024-01-16T14:31:47;8.40;;;5.55;;
9106;SDS011;4589;48.690;8.952;2024-01-16T14:34:16;11.35;;;5.85;;
9106;SDS011;4589;48.690;8.952;2024-01-16T14:36:42;7.82;;;5.47;;
9106;SDS011;4589;48.690;8.952;2024-01-16T14:39:08;8.67;;;5.50;;
9106;SDS011;4589;48.690;8.952;2024-01-16T14:41:46;10.65;;;5.15;;
9106;SDS011;4589;48.690;8.952;2024-01-16T14:44:12;11.53;;;6.40;;
9106;SDS011;4589;48.690;8.952;2024-01-16T14:46:40;10.73;;;6.50;;
9106;SDS011;4589;48.690;8.952;2024-01-16T14:49:06;13.18;;;7.15;;
9106;SDS011;4589;48.690;8.952;2024-01-16T14:51:32;10.65;;;6.70;;
9106;SDS011;4589;48.690;8.952;2024-01-16T14:53:58;13.07;;;6.63;;
9106;SDS011;4589;48.690;8.952;2024-01-16T14:56:26;13.38;;;7.55;;
9106;SDS011;4589;48.690;8.952;2024-01-16T14:58:52;13.75;;;7.40;;
9106;SDS011;4589;48.690;8.952;2024-01-16T15:01:18;12.70;;;6.93;;
9106;SDS011;4589;48.690;8.952;2024-01-16T15:03:43;14.73;;;7.63;;
9106;SDS011;4589;48.690;8.952;2024-01-16T15:06:09;14.30;;;7.22;;
9106;SDS011;4589;48.690;8.952;2024-01-16T15:08:37;23.15;;;8.93;;
9106;SDS011;4589;48.690;8.952;2024-01-16T15:11:03;13.67;;;7.90;;
9106;SDS011;4589;48.690;8.952;2024-01-16T15:13:30;26.10;;;8.95;;
9106;SDS011;4589;48.690;8.952;2024-01-16T15:15:56;19.60;;;8.97;;
9106;SDS011;4589;48.690;8.952;2024-01-16T15:18:22;16.17;;;8.47;;
9106;SDS011;4589;48.690;8.952;2024-01-16T15:20:48;14.57;;;8.23;;